Time;durP1;ratioP1;P1;durP2;ratioP2;P2;SDS_P1;SDS_P2;PMS_P1;PMS_P2;Temp;Humidity;BMP_temperature;BMP_pressure;BME280_temperature;BME280_humidity;BME280_pressure;Samples;Min_cycle;Max_cycle;Signal;HPM_P1;HPM_P2
2023/03/28 00:00:17;;;;;;;;;3.25;2.00;;;;;;;;5114700;28;8797;-75
2023/03/28 00:02:42;;;;;;;;;5.00;2.00;;;;;;;;5115142;28;8801;-76
2023/03/28 00:05:07;;;;;;;;;5.25;3.75;;;;;;;;5115085;28;8869;-75
2023/03/28 00:07:33;;;;;;;;;3.00;3.00;;;;;;;;5096376;28;8805;-76
2023/03/28 00:09:58;;;;;;;;;3.00;2.00;;;;;;;;5096344;28;8848;-76
2023/03/28 00:12:23;;;;;;;;;4.00;2.75;;;;;;;;5096245;28;8919;-77
2023/03/28 00:14:49;;;;;;;;;2.00;2.00;;;;;;;;5115037;28;8796;-76
2023/03/28 00:17:16;;;;;;;;;3.50;2.25;;;;;;;;5102936;28;8790;-75
2023/03/28 00:19:41;;;;;;;;;4.50;3.00;;;;;;;;5094702;28;8767;-76
2023/03/28 00:22:07;;;;;;;;;4.00;2.50;;;;;;;;5094486;28;10414;-75
2023/03/28 00:24:37;;;;;;;;;3.00;2.00;;;;;;;;5112837;28;8777;-75
2023/03/28 00:27:04;;;;;;;;;2.75;2.75;;;;;;;;5114733;28;8777;-75
2023/03/28 00:29:29;;;;;;;;;2.00;2.00;;;;;;;;5114130;28;10301;-75
2023/03/28 00:31:55;;;;;;;;;2.25;2.25;;;;;;;;5114731;28;10494;-75
2023/03/28 00:34:21;;;;;;;;;3.00;3.00;;;;;;;;5114479;28;8907;-75
2023/03/28 00:36:46;;;;;;;;;1.75;1.75;;;;;;;;5114081;28;8808;-75
2023/03/28 00:39:12;;;;;;;;;1.00;1.00;;;;;;;;5114598;28;8797;-76
2023/03/28 00:41:41;;;;;;;;;2.25;2.00;;;;;;;;5114517;28;8813;-76
2023/03/28 00:44:25;;;;;;;;;2.25;2.25;;;;;;;;5114175;28;10537;-75
2023/03/28 00:46:50;;;;;;;;;3.00;2.00;;;;;;;;5114299;28;10485;-76
2023/03/28 00:49:21;;;;;;;;;2.00;2.00;;;;;;;;5114104;28;10417;-76
2023/03/28 00:51:49;;;;;;;;;3.00;3.00;;;;;;;;5114060;28;8799;-76
2023/03/28 00:54:17;;;;;;;;;3.75;3.00;;;;;;;;5114266;28;10622;-75
2023/03/28 00:56:46;;;;;;;;;3.00;3.00;;;;;;;;5095889;28;10480;-76
2023/03/28 00:59:13;;;;;;;;;3.00;3.00;;;;;;;;5114049;28;10463;-75
2023/03/28 01:01:38;;;;;;;;;3.25;3.25;;;;;;;;5112948;28;10326;-76
2023/03/28 01:04:05;;;;;;;;;3.00;3.00;;;;;;;;5114141;28;10481;-76
2023/03/28 01:06:33;;;;;;;;;3.00;3.00;;;;;;;;5113896;28;8777;-76
2023/03/28 01:08:59;;;;;;;;;3.75;3.75;;;;;;;;5113863;28;10465;-75
2023/03/28 01:11:25;;;;;;;;;2.75;2.75;;;;;;;;5113666;28;10294;-75
2023/03/28 01:13:51;;;;;;;;;3.00;3.00;;;;;;;;5114091;28;10391;-76
2023/03/28 01:16:18;;;;;;;;;5.00;4.00;;;;;;;;5110033;28;8794;-76
2023/03/28 01:18:50;;;;;;;;;2.25;2.25;;;;;;;;5093159;28;10355;-76
2023/03/28 01:21:24;;;;;;;;;3.75;3.00;;;;;;;;5093085;28;10378;-75
2023/03/28 01:24:20;;;;;;;;;2.75;2.00;;;;;;;;5093362;28;10579;-75
2023/03/28 01:26:51;;;;;;;;;6.50;6.25;;;;;;;;5095339;28;10340;-75
2023/03/28 01:29:31;;;;;;;;;4.00;4.00;;;;;;;;5113620;28;10452;-75
2023/03/28 01:32:05;;;;;;;;;3.50;2.75;;;;;;;;5113585;28;10462;-75
2023/03/28 01:34:33;;;;;;;;;3.00;2.50;;;;;;;;5094873;28;10338;-76
2023/03/28 01:37:02;;;;;;;;;5.25;3.25;;;;;;;;5113682;28;10456;-75
2023/03/28 01:39:39;;;;;;;;;3.00;3.00;;;;;;;;5113174;28;10590;-76
2023/03/28 01:42:07;;;;;;;;;2.00;1.00;;;;;;;;5113571;28;10322;-75
2023/03/28 01:44:37;;;;;;;;;7.00;2.00;;;;;;;;5113378;28;10403;-76
2023/03/28 01:47:05;;;;;;;;;1.00;1.00;;;;;;;;5113289;28;10367;-76
2023/03/28 01:49:34;;;;;;;;;3.00;2.00;;;;;;;;5113189;28;10317;-76
2023/03/28 01:52:06;;;;;;;;;2.00;2.00;;;;;;;;5112838;28;10401;-76
2023/03/28 01:54:36;;;;;;;;;1.75;1.75;;;;;;;;5113064;28;10314;-76
2023/03/28 01:57:13;;;;;;;;;3.50;2.00;;;;;;;;5113399;28;10396;-76
2023/03/28 02:00:10;;;;;;;;;2.00;2.00;;;;;;;;5113272;28;10422;-75
2023/03/28 02:02:36;;;;;;;;;2.00;2.00;;;;;;;;5010081;28;10456;-76
2023/03/28 02:05:05;;;;;;;;;3.00;2.00;;;;;;;;5010029;28;10551;-75
2023/03/28 02:07:32;;;;;;;;;3.00;1.75;;;;;;;;5010337;28;8880;-75
2023/03/28 02:09:58;;;;;;;;;1.75;1.75;;;;;;;;5010053;28;10423;-75
2023/03/28 02:12:30;;;;;;;;;2.00;2.00;;;;;;;;5009947;28;10453;-75
2023/03/28 02:14:56;;;;;;;;;2.00;1.50;;;;;;;;5010224;28;10601;-74
2023/03/28 02:17:23;;;;;;;;;3.00;2.00;;;;;;;;5010280;28;10542;-75
2023/03/28 02:19:54;;;;;;;;;2.00;2.00;;;;;;;;5010160;28;10626;-75
2023/03/28 02:22:32;;;;;;;;;2.00;2.00;;;;;;;;5010741;28;10384;-76
2023/03/28 02:24:57;;;;;;;;;2.50;2.00;;;;;;;;5011709;28;11306;-75
2023/03/28 02:27:22;;;;;;;;;1.00;1.00;;;;;;;;5010660;28;10464;-75
2023/03/28 02:29:48;;;;;;;;;2.50;2.50;;;;;;;;5009497;28;8825;-75
2023/03/28 02:32:14;;;;;;;;;1.50;1.00;;;;;;;;5008006;28;8887;-75
2023/03/28 02:34:41;;;;;;;;;3.00;2.00;;;;;;;;5008346;28;8813;-76
2023/03/28 02:37:09;;;;;;;;;3.50;2.25;;;;;;;;5008513;28;10428;-75
2023/03/28 02:39:34;;;;;;;;;1.00;1.00;;;;;;;;5073054;28;10636;-75
2023/03/28 02:42:18;;;;;;;;;1.50;1.50;;;;;;;;5112711;28;10601;-76
2023/03/28 02:44:54;;;;;;;;;3.25;2.00;;;;;;;;5112493;28;8777;-75
2023/03/28 02:47:34;;;;;;;;;6.00;2.25;;;;;;;;5111973;28;10298;-76
2023/03/28 02:50:20;;;;;;;;;2.75;2.25;;;;;;;;5093920;28;11152;-76
2023/03/28 02:53:04;;;;;;;;;2.25;2.00;;;;;;;;5094246;28;10614;-76
2023/03/28 02:55:29;;;;;;;;;1.00;1.00;;;;;;;;5112212;28;10155;-77
2023/03/28 02:57:57;;;;;;;;;1.75;1.75;;;;;;;;5112014;28;10335;-76
2023/03/28 03:00:23;;;;;;;;;3.00;1.50;;;;;;;;5111907;28;8819;-76
2023/03/28 03:02:50;;;;;;;;;3.00;3.00;;;;;;;;5111981;28;10367;-76
2023/03/28 03:05:16;;;;;;;;;1.00;1.00;;;;;;;;5111980;28;8791;-77
2023/03/28 03:07:41;;;;;;;;;2.00;2.00;;;;;;;;5112273;28;10291;-77
2023/03/28 03:10:08;;;;;;;;;1.50;1.50;;;;;;;;5111474;28;10434;-77
2023/03/28 03:12:34;;;;;;;;;3.00;3.00;;;;;;;;5112142;28;8777;-77
2023/03/28 03:15:00;;;;;;;;;2.00;2.00;;;;;;;;5093699;28;11076;-76
2023/03/28 03:17:26;;;;;;;;;1.00;1.00;;;;;;;;5097981;28;10587;-77
2023/03/28 03:19:51;;;;;;;;;1.25;1.25;;;;;;;;5090745;28;8780;-76
2023/03/28 03:22:16;;;;;;;;;2.00;2.00;;;;;;;;5091601;28;8822;-76
2023/03/28 03:24:42;;;;;;;;;4.00;1.25;;;;;;;;5090635;28;8787;-76
2023/03/28 03:27:07;;;;;;;;;4.25;4.25;;;;;;;;5091641;28;8771;-76
2023/03/28 03:29:32;;;;;;;;;2.00;2.00;;;;;;;;5073541;28;8787;-76
2023/03/28 03:31:57;;;;;;;;;1.75;1.75;;;;;;;;5091322;28;8814;-77
2023/03/28 03:34:23;;;;;;;;;3.00;3.00;;;;;;;;5056388;28;8925;-76
2023/03/28 03:36:48;;;;;;;;;2.75;2.75;;;;;;;;5111628;28;8907;-76
2023/03/28 03:39:14;;;;;;;;;4.75;2.50;;;;;;;;5112015;28;8808;-76
2023/03/28 03:41:39;;;;;;;;;3.25;3.00;;;;;;;;5112000;28;8792;-75
2023/03/28 03:44:04;;;;;;;;;1.00;1.00;;;;;;;;5093496;28;8921;-77
2023/03/28 03:46:29;;;;;;;;;3.00;3.00;;;;;;;;5111720;28;8785;-76
2023/03/28 03:48:55;;;;;;;;;2.00;2.00;;;;;;;;5111393;28;8832;-76
2023/03/28 03:51:20;;;;;;;;;1.00;1.00;;;;;;;;5111441;28;8809;-77
2023/03/28 03:53:45;;;;;;;;;2.25;2.25;;;;;;;;5111487;28;9213;-76
2023/03/28 03:56:11;;;;;;;;;1.50;1.50;;;;;;;;5110939;28;8881;-77
2023/03/28 03:58:36;;;;;;;;;3.25;1.50;;;;;;;;5111342;28;8866;-77
2023/03/28 04:01:02;;;;;;;;;2.50;2.50;;;;;;;;5111032;28;8768;-76
2023/03/28 04:03:27;;;;;;;;;5.50;2.50;;;;;;;;5111110;28;8844;-76
2023/03/28 04:05:53;;;;;;;;;2.75;2.25;;;;;;;;5092837;28;8822;-76
2023/03/28 04:08:19;;;;;;;;;2.75;2.75;;;;;;;;5110918;28;8808;-76
2023/03/28 04:10:45;;;;;;;;;3.00;3.00;;;;;;;;5110956;28;10361;-76
2023/03/28 04:13:10;;;;;;;;;4.75;3.00;;;;;;;;5110984;28;8805;-75
2023/03/28 04:15:35;;;;;;;;;2.00;2.00;;;;;;;;5110724;28;10420;-76
2023/03/28 04:18:03;;;;;;;;;2.75;2.00;;;;;;;;5092585;28;8829;-76
2023/03/28 04:20:28;;;;;;;;;3.00;3.00;;;;;;;;5090612;28;9247;-76
2023/03/28 04:22:54;;;;;;;;;3.50;3.50;;;;;;;;5094533;28;10405;-76
2023/03/28 04:25:19;;;;;;;;;5.00;3.50;;;;;;;;5110750;28;8808;-76
2023/03/28 04:27:47;;;;;;;;;3.50;3.50;;;;;;;;5092489;28;8797;-76
2023/03/28 04:30:16;;;;;;;;;2.25;2.25;;;;;;;;5092159;28;8785;-76
2023/03/28 04:32:41;;;;;;;;;2.75;2.75;;;;;;;;5110626;28;10495;-76
2023/03/28 04:35:07;;;;;;;;;5.25;3.25;;;;;;;;5111725;28;11264;-76
2023/03/28 04:37:36;;;;;;;;;1.75;1.75;;;;;;;;5114226;28;8780;-76
2023/03/28 04:40:03;;;;;;;;;2.50;2.50;;;;;;;;5114087;28;8761;-76
2023/03/28 04:42:28;;;;;;;;;3.50;2.25;;;;;;;;5114097;28;10449;-76
2023/03/28 04:44:53;;;;;;;;;1.00;1.00;;;;;;;;5113893;28;10397;-76
2023/03/28 04:47:19;;;;;;;;;4.00;4.00;;;;;;;;5113751;28;8895;-76
2023/03/28 04:49:44;;;;;;;;;5.75;4.00;;;;;;;;5113976;28;8804;-77
2023/03/28 04:52:09;;;;;;;;;3.00;2.50;;;;;;;;5114175;28;8886;-76
2023/03/28 04:54:34;;;;;;;;;3.50;3.25;;;;;;;;5114042;28;8777;-76
2023/03/28 04:57:01;;;;;;;;;2.25;2.25;;;;;;;;5113811;28;8893;-76
2023/03/28 04:59:26;;;;;;;;;3.00;3.00;;;;;;;;5113715;28;8795;-75
2023/03/28 05:01:51;;;;;;;;;5.50;3.00;;;;;;;;5113664;28;10363;-75
2023/03/28 05:04:17;;;;;;;;;6.00;5.00;;;;;;;;5113664;28;8781;-75
2023/03/28 05:06:44;;;;;;;;;4.00;4.00;;;;;;;;5113851;28;8789;-75
2023/03/28 05:09:11;;;;;;;;;2.75;2.75;;;;;;;;5113395;28;11443;-75
2023/03/28 05:11:36;;;;;;;;;5.00;4.00;;;;;;;;5094994;28;10402;-76
2023/03/28 05:14:01;;;;;;;;;4.75;3.75;;;;;;;;5113650;28;10634;-74
2023/03/28 05:16:26;;;;;;;;;4.50;4.50;;;;;;;;5108357;28;8802;-74
2023/03/28 05:18:51;;;;;;;;;2.50;1.75;;;;;;;;5093359;28;8775;-74
2023/03/28 05:21:17;;;;;;;;;8.50;6.00;;;;;;;;5092964;28;8916;-75
2023/03/28 05:23:42;;;;;;;;;5.00;3.50;;;;;;;;5103609;28;8924;-74
2023/03/28 05:26:07;;;;;;;;;5.00;5.00;;;;;;;;5113234;28;8793;-77
2023/03/28 05:28:33;;;;;;;;;6.75;5.00;;;;;;;;5113462;28;8777;-75
2023/03/28 05:30:58;;;;;;;;;4.75;4.00;;;;;;;;5113507;28;8873;-74
2023/03/28 05:33:24;;;;;;;;;6.25;6.00;;;;;;;;5113233;28;8851;-74
2023/03/28 05:35:49;;;;;;;;;3.75;3.75;;;;;;;;5113443;28;8824;-75
2023/03/28 05:38:15;;;;;;;;;3.00;3.00;;;;;;;;5113172;28;11427;-75
2023/03/28 05:40:40;;;;;;;;;9.75;3.50;;;;;;;;5113079;28;8813;-75
2023/03/28 05:43:06;;;;;;;;;4.00;4.00;;;;;;;;5113864;28;10611;-74
2023/03/28 05:45:31;;;;;;;;;4.00;4.00;;;;;;;;5112997;28;8789;-75
2023/03/28 05:47:56;;;;;;;;;6.25;4.50;;;;;;;;5113443;28;9577;-75
2023/03/28 05:50:21;;;;;;;;;6.00;4.75;;;;;;;;5113795;28;8784;-74
2023/03/28 05:52:47;;;;;;;;;3.50;3.25;;;;;;;;5112748;28;8805;-75
2023/03/28 05:55:12;;;;;;;;;4.75;4.75;;;;;;;;5112534;28;8800;-74
2023/03/28 05:57:37;;;;;;;;;5.00;5.00;;;;;;;;5113143;28;8792;-74
2023/03/28 06:00:12;;;;;;;;;6.00;6.00;;;;;;;;5112745;28;8897;-75
2023/03/28 06:02:39;;;;;;;;;5.75;5.25;;;;;;;;5112873;28;8797;-75
2023/03/28 06:05:04;;;;;;;;;4.50;3.00;;;;;;;;5094597;28;11219;-75
2023/03/28 06:07:29;;;;;;;;;8.75;5.00;;;;;;;;5112456;28;10611;-75
2023/03/28 06:09:56;;;;;;;;;7.25;5.00;;;;;;;;5111844;28;8820;-75
2023/03/28 06:12:21;;;;;;;;;6.50;6.50;;;;;;;;5112710;28;8777;-75
2023/03/28 06:14:47;;;;;;;;;5.00;5.00;;;;;;;;5112751;28;10565;-74
2023/03/28 06:17:12;;;;;;;;;5.50;4.75;;;;;;;;5112668;28;8823;-75
2023/03/28 06:19:37;;;;;;;;;4.00;4.00;;;;;;;;5112662;28;8805;-75
2023/03/28 06:22:02;;;;;;;;;7.25;4.25;;;;;;;;5112427;28;8856;-75
2023/03/28 06:24:28;;;;;;;;;9.25;7.50;;;;;;;;5112087;28;8819;-75
2023/03/28 06:26:53;;;;;;;;;7.25;5.00;;;;;;;;5112754;28;8780;-75
2023/03/28 06:29:18;;;;;;;;;5.00;5.00;;;;;;;;5112744;28;8785;-75
2023/03/28 06:31:43;;;;;;;;;4.00;4.00;;;;;;;;5112689;28;8834;-75
2023/03/28 06:34:09;;;;;;;;;9.00;9.00;;;;;;;;5112543;28;8809;-75
2023/03/28 06:36:34;;;;;;;;;4.75;4.75;;;;;;;;5112407;28;8796;-75
2023/03/28 06:39:00;;;;;;;;;6.25;6.25;;;;;;;;5112614;28;8851;-76
2023/03/28 06:41:25;;;;;;;;;8.75;5.00;;;;;;;;5112973;28;8769;-76
2023/03/28 06:43:50;;;;;;;;;6.25;5.75;;;;;;;;5112147;28;11537;-75
2023/03/28 06:46:15;;;;;;;;;7.50;6.75;;;;;;;;5112035;28;8789;-75
2023/03/28 06:48:41;;;;;;;;;5.75;5.75;;;;;;;;5112485;28;8793;-76
2023/03/28 06:51:06;;;;;;;;;6.25;6.00;;;;;;;;5112315;28;8812;-76
2023/03/28 06:53:32;;;;;;;;;7.75;7.00;;;;;;;;5112078;28;8889;-76
2023/03/28 06:55:58;;;;;;;;;5.25;5.25;;;;;;;;5112359;28;8891;-76
2023/03/28 06:58:23;;;;;;;;;4.25;1.00;;;;;;;;5111095;28;8840;-76
2023/03/28 07:00:52;;;;;;;;;4.00;3.25;;;;;;;;5093747;28;10504;-76
2023/03/28 07:03:17;;;;;;;;;6.00;6.00;;;;;;;;5112273;28;8793;-76
2023/03/28 07:05:42;;;;;;;;;6.00;6.00;;;;;;;;5112591;28;11286;-76
2023/03/28 07:08:08;;;;;;;;;6.00;6.00;;;;;;;;5111715;28;8812;-75
2023/03/28 07:10:35;;;;;;;;;4.75;4.75;;;;;;;;5111848;28;8781;-75
2023/03/28 07:13:00;;;;;;;;;8.00;8.00;;;;;;;;5112003;28;10581;-76
2023/03/28 07:15:25;;;;;;;;;6.00;5.75;;;;;;;;5111808;28;10555;-76
2023/03/28 07:17:52;;;;;;;;;5.25;5.25;;;;;;;;5094828;28;8814;-76
2023/03/28 07:20:17;;;;;;;;;6.75;5.25;;;;;;;;5091380;28;8771;-77
2023/03/28 07:22:42;;;;;;;;;5.75;5.75;;;;;;;;5090943;28;10641;-76
2023/03/28 07:25:07;;;;;;;;;6.50;5.00;;;;;;;;5091366;28;8786;-76
2023/03/28 07:27:33;;;;;;;;;6.00;6.00;;;;;;;;5100576;28;8788;-75
2023/03/28 07:29:58;;;;;;;;;9.25;5.75;;;;;;;;5093184;28;8843;-73
2023/03/28 07:32:23;;;;;;;;;9.50;6.00;;;;;;;;5110113;28;8823;-73
2023/03/28 07:34:49;;;;;;;;;5.00;4.75;;;;;;;;5106778;28;8777;-73
2023/03/28 07:37:14;;;;;;;;;9.00;6.75;;;;;;;;5109138;28;8796;-73
2023/03/28 07:39:42;;;;;;;;;6.00;6.00;;;;;;;;5106750;28;9975;-73
2023/03/28 07:42:11;;;;;;;;;6.00;5.00;;;;;;;;5108619;28;8832;-73
2023/03/28 07:44:36;;;;;;;;;7.00;7.00;;;;;;;;5111300;28;10397;-73
2023/03/28 07:47:01;;;;;;;;;6.75;6.00;;;;;;;;5093081;28;10480;-73
2023/03/28 07:49:27;;;;;;;;;7.25;5.00;;;;;;;;5111102;28;8910;-73
2023/03/28 07:51:52;;;;;;;;;7.00;6.00;;;;;;;;5063258;28;8788;-74
2023/03/28 07:54:17;;;;;;;;;6.25;6.25;;;;;;;;5090740;28;8821;-73
2023/03/28 07:56:43;;;;;;;;;9.75;8.00;;;;;;;;5090705;28;8775;-74
2023/03/28 07:59:09;;;;;;;;;5.00;4.00;;;;;;;;5090654;28;8806;-74
2023/03/28 08:01:34;;;;;;;;;8.25;6.00;;;;;;;;5090469;28;8775;-74
2023/03/28 08:03:59;;;;;;;;;9.50;9.50;;;;;;;;5103940;28;8889;-74
2023/03/28 08:06:25;;;;;;;;;7.25;6.00;;;;;;;;5110868;28;8773;-74
2023/03/28 08:08:50;;;;;;;;;8.00;7.25;;;;;;;;5080876;28;8824;-74
2023/03/28 08:11:16;;;;;;;;;8.25;7.50;;;;;;;;5072818;28;8791;-74
2023/03/28 08:13:41;;;;;;;;;5.50;5.50;;;;;;;;5074006;28;9646;-74
2023/03/28 08:16:06;;;;;;;;;10.00;8.75;;;;;;;;5073648;28;8804;-74
2023/03/28 08:18:32;;;;;;;;;6.25;6.25;;;;;;;;5073574;28;8819;-74
2023/03/28 08:20:58;;;;;;;;;9.00;7.75;;;;;;;;5072279;28;8796;-74
2023/03/28 08:23:25;;;;;;;;;5.50;5.00;;;;;;;;5073551;28;8772;-74
2023/03/28 08:25:50;;;;;;;;;7.00;7.00;;;;;;;;5073743;28;10470;-74
2023/03/28 08:28:16;;;;;;;;;8.50;8.00;;;;;;;;5072284;28;11170;-74
2023/03/28 08:30:41;;;;;;;;;7.25;7.25;;;;;;;;5073604;28;8809;-74
2023/03/28 08:33:06;;;;;;;;;36.00;27.50;;;;;;;;5073528;28;8804;-74
2023/03/28 08:35:31;;;;;;;;;7.00;6.00;;;;;;;;5073416;28;8827;-74
2023/03/28 08:37:56;;;;;;;;;13.25;11.25;;;;;;;;5073285;28;8781;-74
2023/03/28 08:40:24;;;;;;;;;6.75;5.50;;;;;;;;5072228;28;8901;-73
2023/03/28 08:43:21;;;;;;;;;44.50;38.00;;;;;;;;5073718;28;8842;-75
2023/03/28 08:45:54;;;;;;;;;9.00;7.75;;;;;;;;5011455;28;11459;-74
2023/03/28 08:48:36;;;;;;;;;8.75;7.50;;;;;;;;5011669;28;10414;-74
2023/03/28 08:51:18;;;;;;;;;4.00;4.00;;;;;;;;5011731;28;10474;-74
2023/03/28 08:54:02;;;;;;;;;6.00;6.00;;;;;;;;5011978;28;10607;-74
2023/03/28 08:56:31;;;;;;;;;8.00;7.00;;;;;;;;5012536;28;10489;-74
2023/03/28 08:58:56;;;;;;;;;7.00;6.00;;;;;;;;5012957;28;10337;-74
2023/03/28 09:01:24;;;;;;;;;5.25;4.00;;;;;;;;5012417;28;11555;-73
2023/03/28 09:03:49;;;;;;;;;5.50;4.75;;;;;;;;5012880;28;8881;-73
2023/03/28 09:06:25;;;;;;;;;7.00;5.50;;;;;;;;4995783;28;10371;-74
2023/03/28 09:08:50;;;;;;;;;29.75;26.50;;;;;;;;5018938;28;8803;-74
2023/03/28 09:11:28;;;;;;;;;31.50;30.25;;;;;;;;5030076;28;11944;-74
2023/03/28 09:14:02;;;;;;;;;11.25;11.25;;;;;;;;5030159;28;8869;-73
2023/03/28 09:16:44;;;;;;;;;10.50;8.00;;;;;;;;5029512;28;10618;-74
2023/03/28 09:19:31;;;;;;;;;4.75;3.75;;;;;;;;5030089;28;10657;-76
2023/03/28 09:22:15;;;;;;;;;7.50;6.00;;;;;;;;5054051;28;11099;-74
2023/03/28 09:24:40;;;;;;;;;10.75;9.50;;;;;;;;5072135;28;10249;-74
2023/03/28 09:27:05;;;;;;;;;5.00;5.00;;;;;;;;5072666;28;10512;-73
2023/03/28 09:29:33;;;;;;;;;3.00;3.00;;;;;;;;5072680;28;8851;-73
2023/03/28 09:32:01;;;;;;;;;4.75;4.75;;;;;;;;5072750;28;8781;-74
2023/03/28 09:34:32;;;;;;;;;7.75;7.75;;;;;;;;5072307;28;10363;-74
2023/03/28 09:37:00;;;;;;;;;10.50;9.75;;;;;;;;5072557;28;10418;-73
2023/03/28 09:39:32;;;;;;;;;4.25;4.25;;;;;;;;5072253;28;10525;-75
2023/03/28 09:42:06;;;;;;;;;4.75;4.75;;;;;;;;5072556;28;10228;-73
2023/03/28 09:44:36;;;;;;;;;6.00;5.00;;;;;;;;5072387;28;10453;-73
2023/03/28 09:47:05;;;;;;;;;6.50;5.25;;;;;;;;5072476;28;10388;-75
2023/03/28 09:49:30;;;;;;;;;7.75;6.25;;;;;;;;5072348;28;10404;-73
2023/03/28 09:51:55;;;;;;;;;4.75;4.75;;;;;;;;5072191;28;10393;-73
2023/03/28 09:54:27;;;;;;;;;5.75;5.75;;;;;;;;5072172;28;8881;-73
2023/03/28 09:56:57;;;;;;;;;6.75;5.50;;;;;;;;5070980;28;8919;-74
2023/03/28 09:59:26;;;;;;;;;5.00;5.00;;;;;;;;5071010;28;10545;-73
2023/03/28 10:01:52;;;;;;;;;7.00;6.00;;;;;;;;5071912;28;10409;-74
2023/03/28 10:04:27;;;;;;;;;4.50;3.75;;;;;;;;5071884;28;10167;-73
2023/03/28 10:06:53;;;;;;;;;6.00;4.50;;;;;;;;5072293;28;10216;-74
2023/03/28 10:09:26;;;;;;;;;4.25;4.25;;;;;;;;5095670;28;10029;-74
2023/03/28 10:12:09;;;;;;;;;7.00;5.00;;;;;;;;5112684;28;10412;-74
2023/03/28 10:14:35;;;;;;;;;3.25;3.25;;;;;;;;5112632;28;10016;-75
2023/03/28 10:17:20;;;;;;;;;4.00;4.00;;;;;;;;5112244;28;10030;-75
2023/03/28 10:19:46;;;;;;;;;4.00;4.00;;;;;;;;5112600;28;8806;-74
2023/03/28 10:22:12;;;;;;;;;28.00;27.00;;;;;;;;5112642;28;10232;-75
2023/03/28 10:24:38;;;;;;;;;8.00;7.00;;;;;;;;5112541;28;11080;-74
2023/03/28 10:27:12;;;;;;;;;6.25;5.75;;;;;;;;5112457;28;8856;-74
2023/03/28 10:29:37;;;;;;;;;6.00;5.00;;;;;;;;5112677;28;10270;-73
2023/03/28 10:32:04;;;;;;;;;3.75;3.75;;;;;;;;5112271;28;10087;-74
2023/03/28 10:34:32;;;;;;;;;9.75;9.00;;;;;;;;5111929;28;8769;-75
2023/03/28 10:36:57;;;;;;;;;4.25;4.25;;;;;;;;5112502;28;10173;-74
2023/03/28 10:39:24;;;;;;;;;11.75;11.75;;;;;;;;5111996;28;10163;-74
2023/03/28 10:41:52;;;;;;;;;5.00;3.25;;;;;;;;5111989;28;9648;-75
2023/03/28 10:44:24;;;;;;;;;3.75;2.25;;;;;;;;5104713;28;10098;-75
2023/03/28 10:46:50;;;;;;;;;1.75;1.75;;;;;;;;5102399;28;9873;-75
2023/03/28 10:49:16;;;;;;;;;3.00;2.00;;;;;;;;5111475;28;9920;-75
2023/03/28 10:51:42;;;;;;;;;5.25;3.50;;;;;;;;5111507;28;8774;-75
2023/03/28 10:54:26;;;;;;;;;4.00;3.00;;;;;;;;5111129;28;9965;-75
2023/03/28 10:56:55;;;;;;;;;2.25;1.25;;;;;;;;5095407;28;9996;-75
2023/03/28 10:59:26;;;;;;;;;3.00;2.00;;;;;;;;5111181;28;10023;-75
2023/03/28 11:02:01;;;;;;;;;4.50;2.50;;;;;;;;5111046;28;10083;-75
2023/03/28 11:04:39;;;;;;;;;2.00;2.00;;;;;;;;5110892;28;10010;-75
2023/03/28 11:07:09;;;;;;;;;1.25;1.25;;;;;;;;5091610;28;29980;-75
2023/03/28 11:09:34;;;;;;;;;4.00;2.25;;;;;;;;5111122;28;10733;-75
2023/03/28 11:12:18;;;;;;;;;1.00;1.00;;;;;;;;5111043;28;9858;-75
2023/03/28 11:14:52;;;;;;;;;5.00;5.00;;;;;;;;5110291;28;8780;-75
2023/03/28 11:17:36;;;;;;;;;2.25;2.00;;;;;;;;5102865;28;10098;-75
2023/03/28 11:20:20;;;;;;;;;3.00;3.00;;;;;;;;5104883;28;10020;-75
2023/03/28 11:22:53;;;;;;;;;3.00;3.00;;;;;;;;5110226;28;10118;-75
2023/03/28 11:25:37;;;;;;;;;3.50;3.50;;;;;;;;5092550;28;10142;-75
2023/03/28 11:28:02;;;;;;;;;4.50;3.00;;;;;;;;5107657;28;10358;-75
2023/03/28 11:30:31;;;;;;;;;2.50;2.00;;;;;;;;5110394;28;10134;-74
2023/03/28 11:33:01;;;;;;;;;4.00;4.00;;;;;;;;5110139;28;8785;-75
2023/03/28 11:35:26;;;;;;;;;5.25;3.75;;;;;;;;5110622;28;10214;-74
2023/03/28 11:38:01;;;;;;;;;3.25;3.00;;;;;;;;5107489;28;10012;-75
2023/03/28 11:40:33;;;;;;;;;3.75;3.00;;;;;;;;5110742;28;8765;-75
2023/03/28 11:43:03;;;;;;;;;5.00;4.00;;;;;;;;5110864;28;10040;-75
2023/03/28 11:45:37;;;;;;;;;2.75;2.75;;;;;;;;5114394;28;10080;-75
2023/03/28 11:48:06;;;;;;;;;3.50;3.50;;;;;;;;5117431;28;9956;-75
2023/03/28 11:50:41;;;;;;;;;3.50;3.50;;;;;;;;5116985;28;10021;-73
2023/03/28 11:53:13;;;;;;;;;3.75;3.00;;;;;;;;5117109;28;10076;-76
2023/03/28 11:55:43;;;;;;;;;2.00;2.00;;;;;;;;5115891;28;10087;-75
2023/03/28 11:58:08;;;;;;;;;2.25;2.25;;;;;;;;5116960;28;10012;-75
2023/03/28 12:00:51;;;;;;;;;2.25;2.25;;;;;;;;5094592;28;10164;-75
2023/03/28 12:03:41;;;;;;;;;4.00;3.25;;;;;;;;5117375;28;8785;-74
2023/03/28 12:06:11;;;;;;;;;4.00;4.00;;;;;;;;5117283;28;9953;-74
2023/03/28 12:08:48;;;;;;;;;4.50;4.50;;;;;;;;5111521;28;10036;-74
2023/03/28 12:11:20;;;;;;;;;2.75;2.75;;;;;;;;5096691;28;10101;-74
2023/03/28 12:13:47;;;;;;;;;6.00;5.00;;;;;;;;5114134;28;10090;-73
2023/03/28 12:16:14;;;;;;;;;3.75;3.75;;;;;;;;5117815;28;10010;-74
2023/03/28 12:18:43;;;;;;;;;4.00;4.00;;;;;;;;5117972;28;10025;-74
2023/03/28 12:21:12;;;;;;;;;3.25;3.00;;;;;;;;5118508;28;10011;-74
2023/03/28 12:24:00;;;;;;;;;4.00;2.50;;;;;;;;5117994;28;9974;-74
2023/03/28 12:26:45;;;;;;;;;2.00;2.00;;;;;;;;5118515;28;10013;-74
2023/03/28 12:29:24;;;;;;;;;3.00;3.00;;;;;;;;5118984;28;10033;-74
2023/03/28 12:31:56;;;;;;;;;4.75;4.75;;;;;;;;5117481;28;10027;-74
2023/03/28 12:34:30;;;;;;;;;4.00;4.00;;;;;;;;5099187;28;10046;-74
2023/03/28 12:37:16;;;;;;;;;3.00;3.00;;;;;;;;5098881;28;10965;-75
2023/03/28 12:39:54;;;;;;;;;5.75;4.00;;;;;;;;5117477;28;10181;-75
2023/03/28 12:42:20;;;;;;;;;4.50;2.50;;;;;;;;5117231;28;10136;-75
2023/03/28 12:44:48;;;;;;;;;2.25;2.25;;;;;;;;5116987;28;10064;-74
2023/03/28 12:47:24;;;;;;;;;3.25;3.00;;;;;;;;5117219;28;10099;-74
2023/03/28 12:49:58;;;;;;;;;3.75;3.00;;;;;;;;5117379;28;9940;-74
2023/03/28 12:52:26;;;;;;;;;3.75;3.75;;;;;;;;5117383;28;10103;-74
2023/03/28 12:54:53;;;;;;;;;4.25;4.25;;;;;;;;5117343;28;10092;-74
2023/03/28 12:57:39;;;;;;;;;2.25;2.25;;;;;;;;5114435;28;10205;-74
2023/03/28 13:00:13;;;;;;;;;2.75;2.75;;;;;;;;5113475;28;10182;-74
2023/03/28 13:03:02;;;;;;;;;1.75;1.75;;;;;;;;5113439;28;11045;-74
2023/03/28 13:05:38;;;;;;;;;2.50;2.50;;;;;;;;5100416;28;9999;-75
2023/03/28 13:08:08;;;;;;;;;2.25;2.25;;;;;;;;5113144;28;11040;-74
2023/03/28 13:10:36;;;;;;;;;4.50;3.50;;;;;;;;5113231;28;10271;-74
2023/03/28 13:13:20;;;;;;;;;2.50;2.50;;;;;;;;5113750;28;10191;-74
2023/03/28 13:15:55;;;;;;;;;2.75;2.75;;;;;;;;5113477;28;10016;-74
2023/03/28 13:18:20;;;;;;;;;2.25;2.25;;;;;;;;5093187;28;10899;-74
2023/03/28 13:20:46;;;;;;;;;2.50;2.50;;;;;;;;5093223;28;10090;-74
2023/03/28 13:23:13;;;;;;;;;2.00;2.00;;;;;;;;5099585;28;8852;-74
2023/03/28 13:25:40;;;;;;;;;2.00;2.00;;;;;;;;5113330;28;10200;-74
2023/03/28 13:28:11;;;;;;;;;3.00;2.00;;;;;;;;5113178;28;10025;-74
2023/03/28 13:30:44;;;;;;;;;3.00;3.00;;;;;;;;5113400;28;10713;-74
2023/03/28 13:33:19;;;;;;;;;2.25;2.25;;;;;;;;5095161;28;10058;-74
2023/03/28 13:35:46;;;;;;;;;2.75;2.75;;;;;;;;5087794;28;10112;-74
2023/03/28 13:38:21;;;;;;;;;1.25;0.75;;;;;;;;5083735;28;10178;-74
2023/03/28 13:40:50;;;;;;;;;2.00;0.75;;;;;;;;5086556;28;10227;-74
2023/03/28 13:43:34;;;;;;;;;3.00;3.00;;;;;;;;5094017;28;10201;-75
2023/03/28 13:46:06;;;;;;;;;2.50;2.50;;;;;;;;5113104;28;10179;-74
2023/03/28 13:48:33;;;;;;;;;2.00;2.00;;;;;;;;5112566;28;10021;-74
2023/03/28 13:51:02;;;;;;;;;2.00;2.00;;;;;;;;5077875;28;10141;-74
2023/03/28 13:53:31;;;;;;;;;2.25;2.25;;;;;;;;5112847;28;10225;-74
2023/03/28 13:56:18;;;;;;;;;3.00;3.00;;;;;;;;5090779;28;10218;-74
2023/03/28 13:58:46;;;;;;;;;5.00;3.25;;;;;;;;5108804;28;10029;-74
2023/03/28 14:01:14;;;;;;;;;4.00;3.00;;;;;;;;5109189;28;10163;-74
2023/03/28 14:03:40;;;;;;;;;3.00;3.00;;;;;;;;5112071;28;9955;-74
2023/03/28 14:06:25;;;;;;;;;1.50;1.50;;;;;;;;5112308;28;10188;-74
2023/03/28 14:08:52;;;;;;;;;7.50;7.00;;;;;;;;5091718;28;8878;-74
2023/03/28 14:11:22;;;;;;;;;4.25;3.00;;;;;;;;5111610;28;10385;-74
2023/03/28 14:13:47;;;;;;;;;3.75;2.50;;;;;;;;5108811;28;10106;-74
2023/03/28 14:16:13;;;;;;;;;3.50;3.50;;;;;;;;5109060;28;10063;-74
2023/03/28 14:18:43;;;;;;;;;0.00;0.00;;;;;;;;5110682;28;8831;-74
2023/03/28 14:21:09;;;;;;;;;4.00;4.00;;;;;;;;5111733;28;8784;-74
2023/03/28 14:23:35;;;;;;;;;4.75;3.75;;;;;;;;5111439;28;10137;-73
2023/03/28 14:26:03;;;;;;;;;4.00;3.50;;;;;;;;5109309;28;8789;-74
2023/03/28 14:28:29;;;;;;;;;2.00;1.75;;;;;;;;5108266;28;10100;-74
2023/03/28 14:30:55;;;;;;;;;4.00;3.00;;;;;;;;5111797;28;10166;-74
2023/03/28 14:33:20;;;;;;;;;3.75;3.75;;;;;;;;5108183;28;10111;-74
2023/03/28 14:35:56;;;;;;;;;3.25;3.00;;;;;;;;5111531;28;8811;-74
2023/03/28 14:38:29;;;;;;;;;2.00;2.00;;;;;;;;5111594;28;8781;-74
2023/03/28 14:41:03;;;;;;;;;1.00;1.00;;;;;;;;5106118;28;10028;-74
2023/03/28 14:43:28;;;;;;;;;0.50;0.50;;;;;;;;5100519;28;9936;-74
2023/03/28 14:45:55;;;;;;;;;1.00;1.00;;;;;;;;5111541;28;9806;-74
2023/03/28 14:48:26;;;;;;;;;2.50;2.25;;;;;;;;5107965;28;8780;-74
2023/03/28 14:50:52;;;;;;;;;3.00;2.00;;;;;;;;5108531;28;10114;-74
2023/03/28 14:53:19;;;;;;;;;1.25;1.25;;;;;;;;5107842;28;10923;-74
2023/03/28 14:55:48;;;;;;;;;1.50;1.50;;;;;;;;5111132;28;10551;-74
2023/03/28 14:58:15;;;;;;;;;3.00;3.00;;;;;;;;5109394;28;10022;-74